sensor_id;sensor_type;location;lat;lon;timestamp;P1;durP1;ratioP1;P2;durP2;ratioP2
65825;SDS011;52586;-43.152;172.732;2022-07-12T00:00:05;8.65;;;2.80;;
65825;SDS011;52586;-43.152;172.732;2022-07-12T00:02:37;6.50;;;2.40;;
65825;SDS011;52586;-43.152;172.732;2022-07-12T00:05:08;8.85;;;2.80;;
65825;SDS011;52586;-43.152;172.732;2022-07-12T00:07:38;6.28;;;2.60;;
65825;SDS011;52586;-43.152;172.732;2022-07-12T00:10:09;9.43;;;3.33;;
65825;SDS011;52586;-43.152;172.732;2022-07-12T00:12:40;6.55;;;2.72;;
65825;SDS011;52586;-43.152;172.732;2022-07-12T00:15:12;6.03;;;2.35;;
65825;SDS011;52586;-43.152;172.732;2022-07-12T00:17:44;9.30;;;2.53;;
65825;SDS011;52586;-43.152;172.732;2022-07-12T00:20:14;10.60;;;3.47;;
65825;SDS011;52586;-43.152;172.732;2022-07-12T00:22:45;9.50;;;3.20;;
65825;SDS011;52586;-43.152;172.732;2022-07-12T00:25:16;8.60;;;3.00;;
65825;SDS011;52586;-43.152;172.732;2022-07-12T00:27:47;8.27;;;3.05;;
65825;SDS011;52586;-43.152;172.732;2022-07-12T00:30:20;9.30;;;3.38;;
65825;SDS011;52586;-43.152;172.732;2022-07-12T00:32:51;10.10;;;3.92;;
65825;SDS011;52586;-43.152;172.732;2022-07-12T00:35:21;8.73;;;2.80;;
65825;SDS011;52586;-43.152;172.732;2022-07-12T00:37:52;11.57;;;3.20;;
65825;SDS011;52586;-43.152;172.732;2022-07-12T00:40:23;9.32;;;3.03;;
65825;SDS011;52586;-43.152;172.732;2022-07-12T00:42:54;9.13;;;2.97;;
65825;SDS011;52586;-43.152;172.732;2022-07-12T00:45:26;7.25;;;2.95;;
65825;SDS011;52586;-43.152;172.732;2022-07-12T00:47:57;7.28;;;2.88;;
65825;SDS011;52586;-43.152;172.732;2022-07-12T00:50:28;8.48;;;3.10;;
65825;SDS011;52586;-43.152;172.732;2022-07-12T00:52:58;11.60;;;3.25;;
65825;SDS011;52586;-43.152;172.732;2022-07-12T00:55:29;7.63;;;3.28;;
65825;SDS011;52586;-43.152;172.732;2022-07-12T00:58:00;9.88;;;3.42;;
65825;SDS011;52586;-43.152;172.732;2022-07-12T01:00:32;11.20;;;3.60;;
65825;SDS011;52586;-43.152;172.732;2022-07-12T01:03:03;9.48;;;3.75;;
65825;SDS011;52586;-43.152;172.732;2022-07-12T01:05:34;9.70;;;4.07;;
65825;SDS011;52586;-43.152;172.732;2022-07-12T01:08:05;12.90;;;4.30;;
65825;SDS011;52586;-43.152;172.732;2022-07-12T01:10:37;10.90;;;5.03;;
65825;SDS011;52586;-43.152;172.732;2022-07-12T01:13:08;10.60;;;4.03;;
65825;SDS011;52586;-43.152;172.732;2022-07-12T01:15:41;10.85;;;4.65;;
65825;SDS011;52586;-43.152;172.732;2022-07-12T01:18:12;10.43;;;4.45;;
65825;SDS011;52586;-43.152;172.732;2022-07-12T01:20:44;13.10;;;4.72;;
65825;SDS011;52586;-43.152;172.732;2022-07-12T01:23:17;9.80;;;4.55;;
65825;SDS011;52586;-43.152;172.732;2022-07-12T01:25:48;10.48;;;4.40;;
65825;SDS011;52586;-43.152;172.732;2022-07-12T01:28:18;8.98;;;3.90;;
65825;SDS011;52586;-43.152;172.732;2022-07-12T01:30:50;11.88;;;5.00;;
65825;SDS011;52586;-43.152;172.732;2022-07-12T01:33:21;14.60;;;4.43;;
65825;SDS011;52586;-43.152;172.732;2022-07-12T01:35:53;10.80;;;4.60;;
65825;SDS011;52586;-43.152;172.732;2022-07-12T01:38:25;11.35;;;4.90;;
65825;SDS011;52586;-43.152;172.732;2022-07-12T01:40:56;11.43;;;4.28;;
65825;SDS011;52586;-43.152;172.732;2022-07-12T01:43:27;12.85;;;4.97;;
65825;SDS011;52586;-43.152;172.732;2022-07-12T01:45:58;11.27;;;4.72;;
65825;SDS011;52586;-43.152;172.732;2022-07-12T01:48:29;9.65;;;4.47;;
65825;SDS011;52586;-43.152;172.732;2022-07-12T01:50:59;11.55;;;4.60;;
65825;SDS011;52586;-43.152;172.732;2022-07-12T01:53:32;11.75;;;4.22;;
65825;SDS011;52586;-43.152;172.732;2022-07-12T01:56:04;8.07;;;3.70;;
65825;SDS011;52586;-43.152;172.732;2022-07-12T01:58:35;7.95;;;4.03;;
65825;SDS011;52586;-43.152;172.732;2022-07-12T02:01:06;10.02;;;4.13;;
65825;SDS011;52586;-43.152;172.732;2022-07-12T02:03:39;8.27;;;3.88;;
65825;SDS011;52586;-43.152;172.732;2022-07-12T02:06:09;9.57;;;4.70;;
65825;SDS011;52586;-43.152;172.732;2022-07-12T02:08:43;10.55;;;4.00;;
65825;SDS011;52586;-43.152;172.732;2022-07-12T02:11:13;7.38;;;3.75;;
65825;SDS011;52586;-43.152;172.732;2022-07-12T02:13:44;11.05;;;4.40;;
65825;SDS011;52586;-43.152;172.732;2022-07-12T02:16:15;8.90;;;4.25;;
65825;SDS011;52586;-43.152;172.732;2022-07-12T02:18:45;9.15;;;3.80;;
65825;SDS011;52586;-43.152;172.732;2022-07-12T02:21:16;10.27;;;4.25;;
65825;SDS011;52586;-43.152;172.732;2022-07-12T02:23:49;10.68;;;4.30;;
65825;SDS011;52586;-43.152;172.732;2022-07-12T02:26:23;7.80;;;4.35;;
65825;SDS011;52586;-43.152;172.732;2022-07-12T02:28:54;9.95;;;4.32;;
65825;SDS011;52586;-43.152;172.732;2022-07-12T02:31:24;8.80;;;3.70;;
65825;SDS011;52586;-43.152;172.732;2022-07-12T02:33:55;9.98;;;3.95;;
65825;SDS011;52586;-43.152;172.732;2022-07-12T02:36:26;7.72;;;3.70;;
65825;SDS011;52586;-43.152;172.732;2022-07-12T02:38:58;10.40;;;4.55;;
65825;SDS011;52586;-43.152;172.732;2022-07-12T02:41:30;8.38;;;3.67;;
65825;SDS011;52586;-43.152;172.732;2022-07-12T02:44:01;9.27;;;4.63;;
65825;SDS011;52586;-43.152;172.732;2022-07-12T02:46:32;11.63;;;4.35;;
65825;SDS011;52586;-43.152;172.732;2022-07-12T02:49:03;9.80;;;3.95;;
65825;SDS011;52586;-43.152;172.732;2022-07-12T02:51:34;8.85;;;3.33;;
65825;SDS011;52586;-43.152;172.732;2022-07-12T02:54:06;9.13;;;3.53;;
65825;SDS011;52586;-43.152;172.732;2022-07-12T02:56:37;10.52;;;4.13;;
65825;SDS011;52586;-43.152;172.732;2022-07-12T02:59:08;8.75;;;3.53;;
65825;SDS011;52586;-43.152;172.732;2022-07-12T03:01:38;8.48;;;3.38;;
65825;SDS011;52586;-43.152;172.732;2022-07-12T03:04:09;8.07;;;3.60;;
65825;SDS011;52586;-43.152;172.732;2022-07-12T03:06:40;9.95;;;4.15;;
65825;SDS011;52586;-43.152;172.732;2022-07-12T03:09:12;9.07;;;4.30;;
65825;SDS011;52586;-43.152;172.732;2022-07-12T03:11:43;10.00;;;4.03;;
65825;SDS011;52586;-43.152;172.732;2022-07-12T03:14:14;10.60;;;4.20;;
65825;SDS011;52586;-43.152;172.732;2022-07-12T03:16:45;7.72;;;3.97;;
65825;SDS011;52586;-43.152;172.732;2022-07-12T03:19:15;8.45;;;3.63;;
65825;SDS011;52586;-43.152;172.732;2022-07-12T03:21:46;7.15;;;3.45;;
65825;SDS011;52586;-43.152;172.732;2022-07-12T03:24:19;7.95;;;3.63;;
65825;SDS011;52586;-43.152;172.732;2022-07-12T03:26:49;9.52;;;4.18;;
65825;SDS011;52586;-43.152;172.732;2022-07-12T03:29:20;6.88;;;3.85;;
65825;SDS011;52586;-43.152;172.732;2022-07-12T03:31:50;7.63;;;3.83;;
65825;SDS011;52586;-43.152;172.732;2022-07-12T03:34:21;6.80;;;3.97;;
65825;SDS011;52586;-43.152;172.732;2022-07-12T03:36:52;8.63;;;4.10;;
65825;SDS011;52586;-43.152;172.732;2022-07-12T03:39:24;10.00;;;4.53;;
65825;SDS011;52586;-43.152;172.732;2022-07-12T03:41:55;8.48;;;3.95;;
65825;SDS011;52586;-43.152;172.732;2022-07-12T03:44:26;7.78;;;3.47;;
65825;SDS011;52586;-43.152;172.732;2022-07-12T03:46:57;7.20;;;3.80;;
65825;SDS011;52586;-43.152;172.732;2022-07-12T03:49:28;6.55;;;3.80;;
65825;SDS011;52586;-43.152;172.732;2022-07-12T03:51:58;9.40;;;4.20;;
65825;SDS011;52586;-43.152;172.732;2022-07-12T03:54:31;6.63;;;3.90;;
65825;SDS011;52586;-43.152;172.732;2022-07-12T03:57:02;8.25;;;4.25;;
65825;SDS011;52586;-43.152;172.732;2022-07-12T03:59:42;5.47;;;3.45;;
65825;SDS011;52586;-43.152;172.732;2022-07-12T04:02:14;6.10;;;4.03;;
65825;SDS011;52586;-43.152;172.732;2022-07-12T04:04:45;7.03;;;4.15;;
65825;SDS011;52586;-43.152;172.732;2022-07-12T04:07:16;6.38;;;3.72;;
65825;SDS011;52586;-43.152;172.732;2022-07-12T04:09:49;7.28;;;3.85;;
65825;SDS011;52586;-43.152;172.732;2022-07-12T04:12:20;8.80;;;3.83;;
65825;SDS011;52586;-43.152;172.732;2022-07-12T04:14:50;7.63;;;4.28;;
65825;SDS011;52586;-43.152;172.732;2022-07-12T04:17:21;6.32;;;3.85;;
65825;SDS011;52586;-43.152;172.732;2022-07-12T04:19:52;6.38;;;3.90;;
65825;SDS011;52586;-43.152;172.732;2022-07-12T04:22:22;7.28;;;4.25;;
65825;SDS011;52586;-43.152;172.732;2022-07-12T04:24:55;5.30;;;3.75;;
65825;SDS011;52586;-43.152;172.732;2022-07-12T04:27:26;6.38;;;4.18;;
65825;SDS011;52586;-43.152;172.732;2022-07-12T04:29:56;7.05;;;3.75;;
65825;SDS011;52586;-43.152;172.732;2022-07-12T04:32:27;5.25;;;3.00;;
65825;SDS011;52586;-43.152;172.732;2022-07-12T04:34:58;5.65;;;3.90;;
65825;SDS011;52586;-43.152;172.732;2022-07-12T04:37:28;7.88;;;4.22;;
65825;SDS011;52586;-43.152;172.732;2022-07-12T04:40:01;6.47;;;4.25;;
65825;SDS011;52586;-43.152;172.732;2022-07-12T04:42:32;6.35;;;3.80;;
65825;SDS011;52586;-43.152;172.732;2022-07-12T04:45:03;5.45;;;3.63;;
65825;SDS011;52586;-43.152;172.732;2022-07-12T04:47:35;6.22;;;3.97;;
65825;SDS011;52586;-43.152;172.732;2022-07-12T04:50:06;5.47;;;3.80;;
65825;SDS011;52586;-43.152;172.732;2022-07-12T04:52:37;7.30;;;4.05;;
65825;SDS011;52586;-43.152;172.732;2022-07-12T04:55:10;8.52;;;4.15;;
65825;SDS011;52586;-43.152;172.732;2022-07-12T04:57:41;4.53;;;3.28;;
65825;SDS011;52586;-43.152;172.732;2022-07-12T05:00:12;5.35;;;3.45;;
65825;SDS011;52586;-43.152;172.732;2022-07-12T05:02:43;7.53;;;4.05;;
65825;SDS011;52586;-43.152;172.732;2022-07-12T05:05:13;6.00;;;3.80;;
65825;SDS011;52586;-43.152;172.732;2022-07-12T05:07:44;5.90;;;3.78;;
65825;SDS011;52586;-43.152;172.732;2022-07-12T05:10:17;4.43;;;3.40;;
65825;SDS011;52586;-43.152;172.732;2022-07-12T05:12:47;5.72;;;3.30;;
65825;SDS011;52586;-43.152;172.732;2022-07-12T05:15:18;4.75;;;3.30;;
65825;SDS011;52586;-43.152;172.732;2022-07-12T05:17:49;6.20;;;3.83;;
65825;SDS011;52586;-43.152;172.732;2022-07-12T05:20:20;4.65;;;3.50;;
65825;SDS011;52586;-43.152;172.732;2022-07-12T05:22:50;4.93;;;3.10;;
65825;SDS011;52586;-43.152;172.732;2022-07-12T05:25:23;8.38;;;3.78;;
65825;SDS011;52586;-43.152;172.732;2022-07-12T05:27:54;9.75;;;5.20;;
65825;SDS011;52586;-43.152;172.732;2022-07-12T05:30:25;13.75;;;5.32;;
65825;SDS011;52586;-43.152;172.732;2022-07-12T05:32:56;8.27;;;4.50;;
65825;SDS011;52586;-43.152;172.732;2022-07-12T05:35:26;10.48;;;5.20;;
65825;SDS011;52586;-43.152;172.732;2022-07-12T05:37:57;9.38;;;4.32;;
65825;SDS011;52586;-43.152;172.732;2022-07-12T05:40:31;12.02;;;5.65;;
65825;SDS011;52586;-43.152;172.732;2022-07-12T05:43:01;12.10;;;4.82;;
65825;SDS011;52586;-43.152;172.732;2022-07-12T05:45:32;9.60;;;4.35;;
65825;SDS011;52586;-43.152;172.732;2022-07-12T05:48:03;10.20;;;4.97;;
65825;SDS011;52586;-43.152;172.732;2022-07-12T05:50:34;8.20;;;4.53;;
65825;SDS011;52586;-43.152;172.732;2022-07-12T05:53:05;12.43;;;4.40;;
65825;SDS011;52586;-43.152;172.732;2022-07-12T05:55:51;7.32;;;4.72;;
65825;SDS011;52586;-43.152;172.732;2022-07-12T05:58:23;7.53;;;4.35;;
65825;SDS011;52586;-43.152;172.732;2022-07-12T06:00:53;8.43;;;4.00;;
65825;SDS011;52586;-43.152;172.732;2022-07-12T06:03:24;10.68;;;4.53;;
65825;SDS011;52586;-43.152;172.732;2022-07-12T06:05:55;7.80;;;3.70;;
65825;SDS011;52586;-43.152;172.732;2022-07-12T06:08:25;9.07;;;4.30;;
65825;SDS011;52586;-43.152;172.732;2022-07-12T06:10:58;9.77;;;4.25;;
65825;SDS011;52586;-43.152;172.732;2022-07-12T06:13:29;5.55;;;3.75;;
65825;SDS011;52586;-43.152;172.732;2022-07-12T06:15:59;7.18;;;3.92;;
65825;SDS011;52586;-43.152;172.732;2022-07-12T06:18:32;6.32;;;3.72;;
65825;SDS011;52586;-43.152;172.732;2022-07-12T06:21:04;6.68;;;3.92;;
65825;SDS011;52586;-43.152;172.732;2022-07-12T06:23:35;6.15;;;4.10;;
65825;SDS011;52586;-43.152;172.732;2022-07-12T06:26:08;6.90;;;3.97;;
65825;SDS011;52586;-43.152;172.732;2022-07-12T06:28:38;6.75;;;3.58;;
65825;SDS011;52586;-43.152;172.732;2022-07-12T06:31:09;6.13;;;3.53;;
65825;SDS011;52586;-43.152;172.732;2022-07-12T06:33:40;6.00;;;3.63;;
65825;SDS011;52586;-43.152;172.732;2022-07-12T06:36:10;6.45;;;3.70;;
65825;SDS011;52586;-43.152;172.732;2022-07-12T06:38:41;5.47;;;3.67;;
65825;SDS011;52586;-43.152;172.732;2022-07-12T06:41:14;5.78;;;3.42;;
65825;SDS011;52586;-43.152;172.732;2022-07-12T06:43:44;6.63;;;3.15;;
65825;SDS011;52586;-43.152;172.732;2022-07-12T06:46:15;4.03;;;3.20;;
65825;SDS011;52586;-43.152;172.732;2022-07-12T06:48:46;4.90;;;3.03;;
65825;SDS011;52586;-43.152;172.732;2022-07-12T06:51:17;4.43;;;2.97;;
65825;SDS011;52586;-43.152;172.732;2022-07-12T06:53:47;6.90;;;3.50;;
65825;SDS011;52586;-43.152;172.732;2022-07-12T06:56:20;6.53;;;3.42;;
65825;SDS011;52586;-43.152;172.732;2022-07-12T06:58:50;4.80;;;3.22;;
65825;SDS011;52586;-43.152;172.732;2022-07-12T07:01:21;5.47;;;2.75;;
65825;SDS011;52586;-43.152;172.732;2022-07-12T07:03:52;4.70;;;2.92;;
65825;SDS011;52586;-43.152;172.732;2022-07-12T07:06:22;4.18;;;2.60;;
65825;SDS011;52586;-43.152;172.732;2022-07-12T07:08:53;4.47;;;2.53;;
65825;SDS011;52586;-43.152;172.732;2022-07-12T11:29:59;3.08;;;2.40;;
65825;SDS011;52586;-43.152;172.732;2022-07-12T11:32:34;3.45;;;2.42;;
65825;SDS011;52586;-43.152;172.732;2022-07-12T11:35:17;3.85;;;2.70;;
65825;SDS011;52586;-43.152;172.732;2022-07-12T11:37:49;4.15;;;2.60;;
65825;SDS011;52586;-43.152;172.732;2022-07-12T11:40:25;3.30;;;2.17;;
65825;SDS011;52586;-43.152;172.732;2022-07-12T11:42:57;3.70;;;2.88;;
65825;SDS011;52586;-43.152;172.732;2022-07-12T11:45:30;3.50;;;2.20;;
65825;SDS011;52586;-43.152;172.732;2022-07-12T11:48:03;3.92;;;2.42;;
65825;SDS011;52586;-43.152;172.732;2022-07-12T11:50:34;4.32;;;2.30;;
65825;SDS011;52586;-43.152;172.732;2022-07-12T11:53:05;4.63;;;2.53;;
65825;SDS011;52586;-43.152;172.732;2022-07-12T11:55:44;3.72;;;2.90;;
65825;SDS011;52586;-43.152;172.732;2022-07-12T11:58:15;4.28;;;2.28;;
65825;SDS011;52586;-43.152;172.732;2022-07-12T12:00:48;3.90;;;2.58;;
65825;SDS011;52586;-43.152;172.732;2022-07-12T12:03:19;4.32;;;2.80;;
65825;SDS011;52586;-43.152;172.732;2022-07-12T12:05:51;3.58;;;2.50;;
65825;SDS011;52586;-43.152;172.732;2022-07-12T12:08:22;4.25;;;2.42;;
65825;SDS011;52586;-43.152;172.732;2022-07-12T12:10:54;3.85;;;2.47;;
65825;SDS011;52586;-43.152;172.732;2022-07-12T12:13:25;4.15;;;2.20;;
65825;SDS011;52586;-43.152;172.732;2022-07-12T12:16:00;3.58;;;2.60;;
65825;SDS011;52586;-43.152;172.732;2022-07-12T12:18:32;3.78;;;2.70;;
65825;SDS011;52586;-43.152;172.732;2022-07-12T12:21:04;2.97;;;2.50;;
65825;SDS011;52586;-43.152;172.732;2022-07-12T12:23:36;3.10;;;2.20;;
65825;SDS011;52586;-43.152;172.732;2022-07-12T12:26:14;3.00;;;2.35;;
65825;SDS011;52586;-43.152;172.732;2022-07-12T12:28:47;3.92;;;2.70;;
65825;SDS011;52586;-43.152;172.732;2022-07-12T12:31:21;3.08;;;2.13;;
65825;SDS011;52586;-43.152;172.732;2022-07-12T12:33:54;3.80;;;2.58;;
65825;SDS011;52586;-43.152;172.732;2022-07-12T12:36:25;4.45;;;2.70;;
65825;SDS011;52586;-43.152;172.732;2022-07-12T12:38:57;3.97;;;2.55;;
65825;SDS011;52586;-43.152;172.732;2022-07-12T12:41:28;4.55;;;2.80;;
65825;SDS011;52586;-43.152;172.732;2022-07-12T12:44:10;3.60;;;2.20;;
65825;SDS011;52586;-43.152;172.732;2022-07-12T12:46:50;3.35;;;2.40;;
65825;SDS011;52586;-43.152;172.732;2022-07-12T12:52:16;3.78;;;2.33;;
65825;SDS011;52586;-43.152;172.732;2022-07-12T12:54:47;3.30;;;2.42;;
65825;SDS011;52586;-43.152;172.732;2022-07-12T12:57:18;3.53;;;2.58;;
65825;SDS011;52586;-43.152;172.732;2022-07-12T12:59:50;3.88;;;2.53;;
65825;SDS011;52586;-43.152;172.732;2022-07-12T13:02:23;3.58;;;2.67;;
65825;SDS011;52586;-43.152;172.732;2022-07-12T13:04:54;3.35;;;2.53;;
65825;SDS011;52586;-43.152;172.732;2022-07-12T13:07:26;4.28;;;3.05;;
65825;SDS011;52586;-43.152;172.732;2022-07-12T13:09:57;2.92;;;2.30;;
65825;SDS011;52586;-43.152;172.732;2022-07-12T13:12:28;3.42;;;2.60;;
65825;SDS011;52586;-43.152;172.732;2022-07-12T13:14:58;3.65;;;2.63;;
65825;SDS011;52586;-43.152;172.732;2022-07-12T13:17:31;3.78;;;2.50;;
65825;SDS011;52586;-43.152;172.732;2022-07-12T13:20:02;4.05;;;2.88;;
65825;SDS011;52586;-43.152;172.732;2022-07-12T13:22:33;3.03;;;2.60;;
65825;SDS011;52586;-43.152;172.732;2022-07-12T13:25:05;3.45;;;2.55;;
65825;SDS011;52586;-43.152;172.732;2022-07-12T13:27:36;3.05;;;2.40;;
65825;SDS011;52586;-43.152;172.732;2022-07-12T13:30:08;3.90;;;2.60;;
65825;SDS011;52586;-43.152;172.732;2022-07-12T13:32:42;4.60;;;2.67;;
65825;SDS011;52586;-43.152;172.732;2022-07-12T13:35:13;4.93;;;2.92;;
65825;SDS011;52586;-43.152;172.732;2022-07-12T13:37:43;4.97;;;2.97;;
65825;SDS011;52586;-43.152;172.732;2022-07-12T13:40:14;3.05;;;2.10;;
65825;SDS011;52586;-43.152;172.732;2022-07-12T13:42:47;3.50;;;2.30;;
65825;SDS011;52586;-43.152;172.732;2022-07-12T13:45:20;5.00;;;2.83;;
65825;SDS011;52586;-43.152;172.732;2022-07-12T13:47:53;4.00;;;2.67;;
65825;SDS011;52586;-43.152;172.732;2022-07-12T13:50:24;4.03;;;2.75;;
65825;SDS011;52586;-43.152;172.732;2022-07-12T13:52:55;3.58;;;2.72;;
65825;SDS011;52586;-43.152;172.732;2022-07-12T13:55:27;4.63;;;2.83;;
65825;SDS011;52586;-43.152;172.732;2022-07-12T13:57:58;3.10;;;2.50;;
65825;SDS011;52586;-43.152;172.732;2022-07-12T14:00:29;4.18;;;2.22;;
65825;SDS011;52586;-43.152;172.732;2022-07-12T14:03:02;3.42;;;2.55;;
65825;SDS011;52586;-43.152;172.732;2022-07-12T14:05:32;3.55;;;2.67;;
65825;SDS011;52586;-43.152;172.732;2022-07-12T14:08:04;4.45;;;3.13;;
65825;SDS011;52586;-43.152;172.732;2022-07-12T14:10:35;4.32;;;2.55;;
65825;SDS011;52586;-43.152;172.732;2022-07-12T14:13:05;3.17;;;2.30;;
65825;SDS011;52586;-43.152;172.732;2022-07-12T14:15:36;3.42;;;2.72;;
65825;SDS011;52586;-43.152;172.732;2022-07-12T14:18:10;5.28;;;2.70;;
65825;SDS011;52586;-43.152;172.732;2022-07-12T14:20:41;4.05;;;2.30;;
65825;SDS011;52586;-43.152;172.732;2022-07-12T14:23:14;3.65;;;2.67;;
65825;SDS011;52586;-43.152;172.732;2022-07-12T14:25:46;4.22;;;3.05;;
65825;SDS011;52586;-43.152;172.732;2022-07-12T14:28:16;3.60;;;2.65;;
65825;SDS011;52586;-43.152;172.732;2022-07-12T14:30:47;4.40;;;2.50;;
65825;SDS011;52586;-43.152;172.732;2022-07-12T14:33:19;3.03;;;2.42;;
65825;SDS011;52586;-43.152;172.732;2022-07-12T14:35:50;4.50;;;2.47;;
65825;SDS011;52586;-43.152;172.732;2022-07-12T14:38:21;4.15;;;2.83;;
65825;SDS011;52586;-43.152;172.732;2022-07-12T14:40:51;3.97;;;2.60;;
65825;SDS011;52586;-43.152;172.732;2022-07-12T14:43:22;3.90;;;2.63;;
65825;SDS011;52586;-43.152;172.732;2022-07-12T14:45:53;3.42;;;2.88;;
65825;SDS011;52586;-43.152;172.732;2022-07-12T14:48:25;3.25;;;2.70;;
65825;SDS011;52586;-43.152;172.732;2022-07-12T14:50:56;3.25;;;2.70;;
65825;SDS011;52586;-43.152;172.732;2022-07-12T14:53:27;3.53;;;2.30;;
65825;SDS011;52586;-43.152;172.732;2022-07-12T14:55:58;5.15;;;3.00;;
65825;SDS011;52586;-43.152;172.732;2022-07-12T14:58:29;3.38;;;2.72;;
65825;SDS011;52586;-43.152;172.732;2022-07-12T15:00:59;3.92;;;2.70;;
65825;SDS011;52586;-43.152;172.732;2022-07-12T15:03:32;3.40;;;2.50;;
65825;SDS011;52586;-43.152;172.732;2022-07-12T15:06:03;3.47;;;2.42;;
65825;SDS011;52586;-43.152;172.732;2022-07-12T15:08:33;2.63;;;2.33;;
65825;SDS011;52586;-43.152;172.732;2022-07-12T15:11:04;3.67;;;2.70;;
65825;SDS011;52586;-43.152;172.732;2022-07-12T15:13:35;3.70;;;2.40;;
65825;SDS011;52586;-43.152;172.732;2022-07-12T15:16:06;3.00;;;2.42;;
65825;SDS011;52586;-43.152;172.732;2022-07-12T15:18:39;4.25;;;2.45;;
65825;SDS011;52586;-43.152;172.732;2022-07-12T15:21:09;4.30;;;2.88;;
65825;SDS011;52586;-43.152;172.732;2022-07-12T15:23:40;3.60;;;2.45;;
65825;SDS011;52586;-43.152;172.732;2022-07-12T15:26:11;2.55;;;2.20;;
65825;SDS011;52586;-43.152;172.732;2022-07-12T15:28:51;4.47;;;2.40;;
65825;SDS011;52586;-43.152;172.732;2022-07-12T15:31:23;4.22;;;2.30;;
65825;SDS011;52586;-43.152;172.732;2022-07-12T15:33:56;3.05;;;2.30;;
65825;SDS011;52586;-43.152;172.732;2022-07-12T15:36:27;3.80;;;2.50;;
65825;SDS011;52586;-43.152;172.732;2022-07-12T15:38:58;3.22;;;2.15;;
65825;SDS011;52586;-43.152;172.732;2022-07-12T15:41:28;3.05;;;2.50;;
65825;SDS011;52586;-43.152;172.732;2022-07-12T15:43:59;3.05;;;2.20;;
65825;SDS011;52586;-43.152;172.732;2022-07-12T15:46:31;3.30;;;2.40;;
65825;SDS011;52586;-43.152;172.732;2022-07-12T15:49:04;3.25;;;2.65;;
65825;SDS011;52586;-43.152;172.732;2022-07-12T15:51:34;2.55;;;2.10;;
65825;SDS011;52586;-43.152;172.732;2022-07-12T15:54:21;4.05;;;2.40;;
65825;SDS011;52586;-43.152;172.732;2022-07-12T15:56:51;4.13;;;2.65;;
65825;SDS011;52586;-43.152;172.732;2022-07-12T15:59:22;3.00;;;2.47;;
65825;SDS011;52586;-43.152;172.732;2022-07-12T16:01:53;2.88;;;2.50;;
65825;SDS011;52586;-43.152;172.732;2022-07-12T16:04:26;3.90;;;2.67;;
65825;SDS011;52586;-43.152;172.732;2022-07-12T16:06:57;3.28;;;2.55;;
65825;SDS011;52586;-43.152;172.732;2022-07-12T16:09:28;3.58;;;2.45;;
65825;SDS011;52586;-43.152;172.732;2022-07-12T16:11:59;3.38;;;2.35;;
65825;SDS011;52586;-43.152;172.732;2022-07-12T16:14:30;2.83;;;2.40;;
65825;SDS011;52586;-43.152;172.732;2022-07-12T16:17:01;3.22;;;2.38;;
65825;SDS011;52586;-43.152;172.732;2022-07-12T16:19:34;3.53;;;2.55;;
65825;SDS011;52586;-43.152;172.732;2022-07-12T16:22:04;3.22;;;2.28;;
65825;SDS011;52586;-43.152;172.732;2022-07-12T16:24:35;4.00;;;2.70;;
65825;SDS011;52586;-43.152;172.732;2022-07-12T16:27:06;3.47;;;2.33;;
65825;SDS011;52586;-43.152;172.732;2022-07-12T16:29:37;3.47;;;2.47;;
65825;SDS011;52586;-43.152;172.732;2022-07-12T16:32:07;4.35;;;2.40;;
65825;SDS011;52586;-43.152;172.732;2022-07-12T16:34:40;3.58;;;2.35;;
65825;SDS011;52586;-43.152;172.732;2022-07-12T16:37:11;3.53;;;2.42;;
65825;SDS011;52586;-43.152;172.732;2022-07-12T16:39:42;3.72;;;2.78;;
65825;SDS011;52586;-43.152;172.732;2022-07-12T16:42:13;4.45;;;2.40;;
65825;SDS011;52586;-43.152;172.732;2022-07-12T16:44:43;4.20;;;2.65;;
65825;SDS011;52586;-43.152;172.732;2022-07-12T16:47:14;3.90;;;2.80;;
65825;SDS011;52586;-43.152;172.732;2022-07-12T16:49:47;3.35;;;2.35;;
65825;SDS011;52586;-43.152;172.732;2022-07-12T16:52:17;3.42;;;2.35;;
65825;SDS011;52586;-43.152;172.732;2022-07-12T16:54:48;4.00;;;2.30;;
65825;SDS011;52586;-43.152;172.732;2022-07-12T16:57:19;2.90;;;2.30;;
65825;SDS011;52586;-43.152;172.732;2022-07-12T16:59:51;2.78;;;2.10;;
65825;SDS011;52586;-43.152;172.732;2022-07-12T17:02:21;3.03;;;2.08;;
65825;SDS011;52586;-43.152;172.732;2022-07-12T17:04:54;3.42;;;2.45;;
65825;SDS011;52586;-43.152;172.732;2022-07-12T17:07:25;3.45;;;2.40;;
65825;SDS011;52586;-43.152;172.732;2022-07-12T17:09:55;2.67;;;2.40;;
65825;SDS011;52586;-43.152;172.732;2022-07-12T17:12:26;4.07;;;2.55;;
65825;SDS011;52586;-43.152;172.732;2022-07-12T17:14:57;3.55;;;2.45;;
65825;SDS011;52586;-43.152;172.732;2022-07-12T17:17:28;3.15;;;2.47;;
65825;SDS011;52586;-43.152;172.732;2022-07-12T17:20:00;3.30;;;2.75;;
65825;SDS011;52586;-43.152;172.732;2022-07-12T17:22:31;3.67;;;2.53;;
65825;SDS011;52586;-43.152;172.732;2022-07-12T17:25:04;3.92;;;2.25;;
65825;SDS011;52586;-43.152;172.732;2022-07-12T17:27:36;3.20;;;2.45;;
65825;SDS011;52586;-43.152;172.732;2022-07-12T17:30:07;3.55;;;2.53;;
65825;SDS011;52586;-43.152;172.732;2022-07-12T17:32:38;3.00;;;2.30;;
65825;SDS011;52586;-43.152;172.732;2022-07-12T17:35:12;5.15;;;2.83;;
65825;SDS011;52586;-43.152;172.732;2022-07-12T17:37:43;4.22;;;2.63;;
65825;SDS011;52586;-43.152;172.732;2022-07-12T17:40:13;4.40;;;2.70;;
65825;SDS011;52586;-43.152;172.732;2022-07-12T17:42:44;3.92;;;2.97;;
65825;SDS011;52586;-43.152;172.732;2022-07-12T17:45:15;4.15;;;3.25;;
65825;SDS011;52586;-43.152;172.732;2022-07-12T17:47:45;4.07;;;2.83;;
65825;SDS011;52586;-43.152;172.732;2022-07-12T17:50:18;5.32;;;3.13;;
65825;SDS011;52586;-43.152;172.732;2022-07-12T17:52:49;3.35;;;2.58;;
65825;SDS011;52586;-43.152;172.732;2022-07-12T17:55:20;4.85;;;2.88;;
65825;SDS011;52586;-43.152;172.732;2022-07-12T17:57:51;3.90;;;2.50;;
65825;SDS011;52586;-43.152;172.732;2022-07-12T18:00:38;4.55;;;2.90;;
65825;SDS011;52586;-43.152;172.732;2022-07-12T18:03:10;5.15;;;3.05;;
65825;SDS011;52586;-43.152;172.732;2022-07-12T18:05:44;4.50;;;2.92;;
65825;SDS011;52586;-43.152;172.732;2022-07-12T18:08:14;4.40;;;2.88;;
65825;SDS011;52586;-43.152;172.732;2022-07-12T18:10:45;4.30;;;2.83;;
65825;SDS011;52586;-43.152;172.732;2022-07-12T18:13:16;4.25;;;2.83;;
65825;SDS011;52586;-43.152;172.732;2022-07-12T18:16:02;3.45;;;2.80;;
65825;SDS011;52586;-43.152;172.732;2022-07-12T18:18:33;5.20;;;3.20;;
65825;SDS011;52586;-43.152;172.732;2022-07-12T18:21:05;3.15;;;2.45;;
65825;SDS011;52586;-43.152;172.732;2022-07-12T18:23:36;4.57;;;2.95;;
65825;SDS011;52586;-43.152;172.732;2022-07-12T18:26:09;4.68;;;2.78;;
65825;SDS011;52586;-43.152;172.732;2022-07-12T18:28:39;3.78;;;2.95;;
65825;SDS011;52586;-43.152;172.732;2022-07-12T18:31:11;3.15;;;2.58;;
65825;SDS011;52586;-43.152;172.732;2022-07-12T18:33:41;4.50;;;3.20;;
65825;SDS011;52586;-43.152;172.732;2022-07-12T18:36:14;4.15;;;2.72;;
65825;SDS011;52586;-43.152;172.732;2022-07-12T18:38:45;3.30;;;2.70;;
65825;SDS011;52586;-43.152;172.732;2022-07-12T18:41:15;4.13;;;2.88;;
65825;SDS011;52586;-43.152;172.732;2022-07-12T18:43:46;4.55;;;2.92;;
65825;SDS011;52586;-43.152;172.732;2022-07-12T18:46:17;3.85;;;2.95;;
65825;SDS011;52586;-43.152;172.732;2022-07-12T18:48:48;4.70;;;3.00;;
65825;SDS011;52586;-43.152;172.732;2022-07-12T18:51:21;4.65;;;2.72;;
65825;SDS011;52586;-43.152;172.732;2022-07-12T18:53:51;4.55;;;2.92;;